createdAt,value
2023-02-07T00:02:23.452Z,98641.88
2023-02-07T00:05:20.300Z,98644.03
2023-02-07T00:08:17.239Z,98641.25
2023-02-07T00:11:19.333Z,98633.56
2023-02-07T00:14:16.178Z,98636.22
2023-02-07T00:17:13.009Z,98629.34
2023-02-07T00:20:10.911Z,98628.53
2023-02-07T00:23:07.720Z,98630.38
2023-02-07T00:26:07.371Z,98632.50
2023-02-07T00:29:05.053Z,98635.66
2023-02-07T00:32:01.905Z,98629.25
2023-02-07T00:34:58.734Z,98631.84
2023-02-07T00:37:55.629Z,98635.31
2023-02-07T00:40:52.466Z,98630.53
2023-02-07T00:43:49.286Z,98639.72
2023-02-07T00:46:46.213Z,98645.59
2023-02-07T00:49:43.037Z,98632.50
2023-02-07T00:52:39.857Z,98635.63
2023-02-07T00:55:36.944Z,98630.56
2023-02-07T00:58:34.226Z,98614.84
2023-02-07T01:01:31.337Z,98617.59
2023-02-07T01:04:28.280Z,98621.38
2023-02-07T01:07:25.154Z,98624.81
2023-02-07T01:10:22.834Z,98636.28
2023-02-07T01:13:19.961Z,98616.47
2023-02-07T01:16:36.272Z,98632.22
2023-02-07T01:19:33.089Z,98629.88
2023-02-07T01:22:29.939Z,98618.75
2023-02-07T01:25:26.828Z,98623.19
2023-02-07T01:28:23.662Z,98622.19
2023-02-07T01:31:22.156Z,98622.53
2023-02-07T01:34:19.390Z,98616.31
2023-02-07T01:37:16.364Z,98617.13
2023-02-07T01:40:13.789Z,98629.25
2023-02-07T01:43:22.479Z,98623.84
2023-02-07T01:46:19.311Z,98613.34
2023-02-07T01:49:22.005Z,98626.28
2023-02-07T01:52:26.229Z,98623.31
2023-02-07T01:55:31.885Z,98603.88
2023-02-07T01:58:29.086Z,98601.91
2023-02-07T02:01:26.584Z,98595.97
2023-02-07T02:04:23.685Z,98596.66
2023-02-07T02:07:21.808Z,98596.81
2023-02-07T02:10:24.767Z,98599.25
2023-02-07T02:13:47.688Z,98608.97
2023-02-07T02:17:18.235Z,98607.75
2023-02-07T02:20:27.472Z,98609.53
2023-02-07T02:24:13.239Z,98597.75
2023-02-07T02:27:52.349Z,98605.94
2023-02-07T02:31:04.673Z,98598.22
2023-02-07T02:34:21.685Z,98597.13
2023-02-07T02:37:52.435Z,98588.88
2023-02-07T02:41:01.669Z,98580.03
2023-02-07T02:44:18.573Z,98580.00
2023-02-07T02:47:17.731Z,98577.78
2023-02-07T02:50:21.361Z,98575.28
2023-02-07T02:53:18.237Z,98574.19
2023-02-07T02:56:36.524Z,98585.72
2023-02-07T03:00:13.904Z,98576.72
2023-02-07T03:03:37.146Z,98564.88
2023-02-07T03:06:42.400Z,98564.75
2023-02-07T03:10:10.983Z,98567.56
2023-02-07T03:13:27.472Z,98564.72
2023-02-07T03:16:42.853Z,98563.13
2023-02-07T03:19:51.530Z,98557.22
2023-02-07T03:22:50.985Z,98557.19
2023-02-07T03:25:50.618Z,98565.13
2023-02-07T03:28:49.542Z,98574.13
2023-02-07T03:31:51.557Z,98566.66
2023-02-07T03:34:58.266Z,98562.81
2023-02-07T03:38:00.560Z,98571.13
2023-02-07T03:41:04.956Z,98576.31
2023-02-07T03:44:07.034Z,98582.69
2023-02-07T03:47:04.749Z,98576.75
2023-02-07T03:50:01.606Z,98586.91
2023-02-07T03:52:58.424Z,98579.50
2023-02-07T03:55:55.353Z,98588.81
2023-02-07T03:58:52.287Z,98592.13
2023-02-07T04:01:49.894Z,98594.25
2023-02-07T04:04:46.763Z,98580.72
2023-02-07T04:07:43.653Z,98575.19
2023-02-07T04:10:40.532Z,98573.16
2023-02-07T04:13:37.595Z,98567.34
2023-02-07T04:16:34.568Z,98572.66
2023-02-07T04:19:31.464Z,98567.59
2023-02-07T04:22:29.516Z,98570.28
2023-02-07T04:25:26.425Z,98572.56
2023-02-07T04:28:23.407Z,98588.03
2023-02-07T04:31:20.295Z,98580.25
2023-02-07T04:34:17.159Z,98584.84
2023-02-07T04:37:14.294Z,98593.53
2023-02-07T04:40:11.581Z,98594.91
2023-02-07T04:43:08.396Z,98596.34
2023-02-07T04:46:06.572Z,98588.88
2023-02-07T04:49:04.273Z,98600.50
2023-02-07T04:52:01.121Z,98608.03
2023-02-07T04:54:57.968Z,98605.38
2023-02-07T04:57:54.796Z,98609.00
2023-02-07T05:00:53.286Z,98606.19
2023-02-07T05:03:50.229Z,98607.44
2023-02-07T05:06:47.790Z,98610.66
2023-02-07T05:09:44.671Z,98626.22
2023-02-07T05:12:41.493Z,98617.09
2023-02-07T05:15:38.789Z,98613.59
2023-02-07T05:18:35.816Z,98612.63
2023-02-07T05:21:32.821Z,98608.34
2023-02-07T05:24:29.881Z,98616.06
2023-02-07T05:27:26.979Z,98612.78
2023-02-07T05:30:24.301Z,98618.47
2023-02-07T05:33:21.144Z,98634.56
2023-02-07T05:36:17.955Z,98634.72
2023-02-07T05:39:14.840Z,98641.13
2023-02-07T05:42:14.664Z,98644.63
2023-02-07T05:45:11.984Z,98656.47
2023-02-07T05:48:08.958Z,98659.31
2023-02-07T05:51:06.125Z,98667.38
2023-02-07T05:54:03.040Z,98684.00
2023-02-07T05:56:59.861Z,98705.84
2023-02-07T05:59:57.229Z,98696.38
2023-02-07T06:02:54.089Z,98696.13
2023-02-07T06:05:51.226Z,98705.38
2023-02-07T06:08:48.165Z,98718.59
2023-02-07T06:11:44.972Z,98713.09
2023-02-07T06:14:41.842Z,98714.06
2023-02-07T06:17:38.627Z,98706.31
2023-02-07T06:20:35.527Z,98711.28
2023-02-07T06:23:32.385Z,98720.63
2023-02-07T06:26:29.438Z,98711.28
2023-02-07T06:29:26.261Z,98721.66
2023-02-07T06:32:23.092Z,98707.09
2023-02-07T06:35:20.174Z,98702.69
2023-02-07T06:38:18.270Z,98710.75
2023-02-07T06:41:15.308Z,98701.16
2023-02-07T06:44:12.160Z,98706.06
2023-02-07T06:47:09.071Z,98713.59
2023-02-07T06:50:08.870Z,98707.91
2023-02-07T06:53:05.978Z,98711.47
2023-02-07T06:56:02.940Z,98712.44
2023-02-07T06:58:59.853Z,98714.91
2023-02-07T07:01:56.749Z,98727.25
2023-02-07T07:04:53.564Z,98717.63
2023-02-07T07:07:51.595Z,98720.13
2023-02-07T07:10:48.458Z,98721.25
2023-02-07T07:13:45.389Z,98730.03
2023-02-07T07:16:42.225Z,98733.84
2023-02-07T07:19:39.098Z,98734.78
2023-02-07T07:22:35.929Z,98741.94
2023-02-07T07:25:32.747Z,98729.47
2023-02-07T07:28:30.074Z,98724.50
2023-02-07T07:31:27.861Z,98728.53
2023-02-07T07:34:24.722Z,98722.59
2023-02-07T07:37:21.635Z,98729.88
2023-02-07T07:40:18.528Z,98718.31
2023-02-07T07:43:15.384Z,98721.22
2023-02-07T07:46:12.234Z,98730.28
2023-02-07T07:49:09.376Z,98728.06
2023-02-07T07:52:06.441Z,98722.69
2023-02-07T07:55:03.705Z,98717.38
2023-02-07T07:58:00.611Z,98726.41
2023-02-07T08:00:57.571Z,98725.31
2023-02-07T08:03:54.582Z,98720.66
2023-02-07T08:06:51.455Z,98722.28
2023-02-07T08:09:48.331Z,98717.63
2023-02-07T08:12:45.134Z,98721.75
2023-02-07T08:15:42.266Z,98722.94
2023-02-07T08:18:39.068Z,98726.53
2023-02-07T08:21:36.007Z,98725.97
2023-02-07T08:24:34.504Z,98713.16
2023-02-07T08:27:31.348Z,98724.00
2023-02-07T08:30:28.218Z,98720.53
2023-02-07T08:33:25.040Z,98723.59
2023-02-07T08:36:21.996Z,98719.03
2023-02-07T08:39:19.009Z,98713.66
2023-02-07T08:42:15.830Z,98718.56
2023-02-07T08:45:14.173Z,98719.34
2023-02-07T08:48:11.059Z,98720.97
2023-02-07T08:51:09.306Z,98719.28
2023-02-07T08:54:06.252Z,98727.03
2023-02-07T08:57:03.634Z,98721.66
2023-02-07T09:00:01.077Z,98717.22
2023-02-07T09:02:57.890Z,98720.13
2023-02-07T09:05:59.442Z,98709.31
2023-02-07T09:08:56.280Z,98707.78
2023-02-07T09:11:53.135Z,98708.03
2023-02-07T09:14:49.957Z,98704.97
2023-02-07T09:17:46.745Z,98709.47
2023-02-07T09:20:44.277Z,98711.75
2023-02-07T09:23:41.872Z,98703.47
2023-02-07T09:26:39.062Z,98705.72
2023-02-07T09:29:36.287Z,98698.59
2023-02-07T09:32:34.298Z,98698.28
2023-02-07T09:35:31.222Z,98707.63
2023-02-07T09:38:28.416Z,98700.38
2023-02-07T09:41:53.100Z,98704.50
2023-02-07T09:45:03.644Z,98698.63
2023-02-07T09:48:11.140Z,98690.41
2023-02-07T09:51:13.382Z,98684.91
2023-02-07T09:54:31.915Z,98684.28
2023-02-07T09:57:46.937Z,98674.53
2023-02-07T10:00:53.876Z,98663.16
2023-02-07T10:04:36.285Z,98651.81
2023-02-07T10:07:33.597Z,98651.78
2023-02-07T10:10:50.864Z,98653.03
2023-02-07T10:14:22.392Z,98644.59
2023-02-07T10:17:46.125Z,98631.88
2023-02-07T10:21:10.055Z,98616.25
2023-02-07T10:24:44.360Z,98622.63
2023-02-07T10:28:19.601Z,98625.09
2023-02-07T10:31:19.094Z,98635.78
2023-02-07T10:34:23.484Z,98624.66
2023-02-07T10:37:27.306Z,98624.53
2023-02-07T10:40:41.046Z,98637.50
2023-02-07T10:43:41.754Z,98626.41
2023-02-07T10:46:42.612Z,98615.00
2023-02-07T10:49:39.955Z,98612.25
2023-02-07T10:52:44.184Z,98601.19
2023-02-07T10:55:48.063Z,98600.72
2023-02-07T10:58:44.979Z,98598.22
2023-02-07T11:01:41.836Z,98594.75
2023-02-07T11:04:42.729Z,98589.38
2023-02-07T11:07:47.463Z,98574.69
2023-02-07T11:10:46.838Z,98585.34
2023-02-07T11:13:50.897Z,98581.19
2023-02-07T11:16:48.715Z,98588.28
2023-02-07T11:19:45.693Z,98576.03
2023-02-07T11:22:43.436Z,98577.50
2023-02-07T11:25:47.433Z,98569.41
2023-02-07T11:28:44.592Z,98576.75
2023-02-07T11:31:44.725Z,98564.81
2023-02-07T11:34:57.154Z,98562.13
2023-02-07T11:38:06.402Z,98546.47
2023-02-07T11:41:06.760Z,98550.75
2023-02-07T11:44:17.129Z,98549.75
2023-02-07T11:47:19.816Z,98547.59
2023-02-07T11:50:27.305Z,98541.09
2023-02-07T11:53:44.109Z,98535.44
2023-02-07T11:56:45.344Z,98535.59
2023-02-07T12:00:16.999Z,98529.81
2023-02-07T12:03:28.661Z,98525.78
2023-02-07T12:06:39.328Z,98524.75
2023-02-07T12:09:57.298Z,98526.81
2023-02-07T12:13:12.405Z,98523.34
2023-02-07T12:16:24.364Z,98537.41
2023-02-07T12:19:34.281Z,98533.25
2023-02-07T12:22:44.556Z,98532.06
2023-02-07T12:26:22.951Z,98539.59
2023-02-07T12:30:10.651Z,98534.59
2023-02-07T12:33:43.980Z,98532.16
2023-02-07T12:36:48.415Z,98529.25
2023-02-07T12:40:24.890Z,98528.00
2023-02-07T12:43:35.916Z,98526.75
2023-02-07T12:47:10.700Z,98516.28
2023-02-07T12:50:23.795Z,98528.56
2023-02-07T12:53:48.576Z,98530.47
2023-02-07T12:57:41.323Z,98528.06
2023-02-07T13:01:28.582Z,98523.66
2023-02-07T13:05:04.219Z,98529.28
2023-02-07T13:08:54.175Z,98530.53
2023-02-07T13:12:29.465Z,98529.91
2023-02-07T13:15:59.158Z,98541.53
2023-02-07T13:19:14.032Z,98530.50
2023-02-07T13:22:43.228Z,98529.53
2023-02-07T13:25:47.333Z,98531.63
2023-02-07T13:28:59.025Z,98530.06
2023-02-07T13:32:03.319Z,98525.63
2023-02-07T13:35:06.432Z,98524.16
2023-02-07T13:38:51.691Z,98519.84
2023-02-07T13:42:32.312Z,98514.97
2023-02-07T13:45:37.305Z,98516.50
2023-02-07T13:48:55.748Z,98512.19
2023-02-07T13:52:16.995Z,98510.75
2023-02-07T13:55:38.518Z,98520.78
2023-02-07T13:58:53.751Z,98507.69
2023-02-07T14:01:57.952Z,98502.56
2023-02-07T14:05:06.580Z,98511.75
2023-02-07T14:08:25.708Z,98511.16
2023-02-07T14:11:36.310Z,98516.69
2023-02-07T14:14:38.942Z,98507.75
2023-02-07T14:17:44.865Z,98525.47
2023-02-07T14:20:41.716Z,98514.84
2023-02-07T14:23:57.295Z,98517.91
2023-02-07T14:27:00.763Z,98515.88
2023-02-07T14:30:00.539Z,98525.06
2023-02-07T14:33:16.583Z,98515.09
2023-02-07T14:36:13.240Z,98513.47
2023-02-07T14:39:18.894Z,98517.13
2023-02-07T14:42:21.939Z,98516.50
2023-02-07T14:45:21.772Z,98518.75
2023-02-07T14:48:37.356Z,98511.84
2023-02-07T14:51:53.610Z,98507.78
2023-02-07T14:55:14.040Z,98511.00
2023-02-07T14:58:28.180Z,98509.78
2023-02-07T15:01:25.931Z,98512.41
2023-02-07T15:04:22.828Z,98510.34
2023-02-07T15:07:19.671Z,98512.53
2023-02-07T15:10:36.814Z,98515.00
2023-02-07T15:14:02.092Z,98516.63
2023-02-07T15:17:00.605Z,98516.44
2023-02-07T15:19:57.521Z,98525.06
2023-02-07T15:22:57.291Z,98522.84
2023-02-07T15:25:54.285Z,98522.63
2023-02-07T15:29:04.358Z,98519.41
2023-02-07T15:32:01.468Z,98526.88
2023-02-07T15:35:11.881Z,98526.59
2023-02-07T15:38:23.787Z,98529.94
2023-02-07T15:41:20.645Z,98535.72
2023-02-07T15:44:27.739Z,98545.91
2023-02-07T15:47:32.930Z,98551.31
2023-02-07T15:50:30.994Z,98550.97
2023-02-07T15:53:30.478Z,98552.22
2023-02-07T15:56:30.028Z,98554.47
2023-02-07T15:59:31.955Z,98556.72
2023-02-07T16:02:38.986Z,98553.88
2023-02-07T16:05:39.006Z,98555.78
2023-02-07T16:08:40.980Z,98554.47
2023-02-07T16:11:39.952Z,98550.63
2023-02-07T16:14:41.159Z,98549.63
2023-02-07T16:17:42.032Z,98555.56
2023-02-07T16:20:41.989Z,98562.28
2023-02-07T16:23:39.086Z,98567.31
2023-02-07T16:26:37.176Z,98569.03
2023-02-07T16:29:36.240Z,98563.53
2023-02-07T16:32:34.188Z,98580.75
2023-02-07T16:35:31.006Z,98578.47
2023-02-07T16:38:27.823Z,98580.75
2023-02-07T16:41:32.309Z,98587.16
2023-02-07T16:44:31.180Z,98587.09
2023-02-07T16:47:28.161Z,98591.72
2023-02-07T16:50:28.338Z,98593.19
2023-02-07T16:53:25.417Z,98590.06
2023-02-07T16:56:26.838Z,98595.38
2023-02-07T16:59:24.796Z,98592.69
2023-02-07T17:02:21.625Z,98596.56
2023-02-07T17:05:22.675Z,98599.94
2023-02-07T17:08:26.939Z,98596.75
2023-02-07T17:11:25.756Z,98588.34
2023-02-07T17:14:22.677Z,98597.91
2023-02-07T17:17:19.504Z,98598.63
2023-02-07T17:20:30.657Z,98601.97
2023-02-07T17:23:28.719Z,98606.09
2023-02-07T17:26:31.277Z,98601.00
2023-02-07T17:29:28.240Z,98608.09
2023-02-07T17:32:25.109Z,98607.34
2023-02-07T17:35:22.083Z,98598.38
2023-02-07T17:38:18.983Z,98607.75
2023-02-07T17:41:17.811Z,98615.19
2023-02-07T17:44:14.624Z,98629.28
2023-02-07T17:47:11.705Z,98617.28
2023-02-07T17:50:22.114Z,98616.63
2023-02-07T17:53:21.442Z,98623.53
2023-02-07T17:56:29.301Z,98623.56
2023-02-07T17:59:26.226Z,98623.44
2023-02-07T18:02:23.132Z,98618.19
2023-02-07T18:05:20.377Z,98619.34
2023-02-07T18:08:17.234Z,98624.28
2023-02-07T18:11:14.428Z,98628.16
2023-02-07T18:14:11.597Z,98609.94
2023-02-07T18:17:11.089Z,98628.78
2023-02-07T18:20:11.057Z,98632.38
2023-02-07T18:23:07.962Z,98633.75
2023-02-07T18:26:05.090Z,98641.69
2023-02-07T18:29:01.894Z,98645.09
2023-02-07T18:31:58.704Z,98645.66
2023-02-07T18:34:55.615Z,98652.75
2023-02-07T18:37:52.549Z,98657.63
2023-02-07T18:40:49.464Z,98658.31
2023-02-07T18:43:46.755Z,98665.19
2023-02-07T18:46:43.661Z,98680.41
2023-02-07T18:49:40.504Z,98675.34
2023-02-07T18:52:38.767Z,98674.34
2023-02-07T18:55:36.661Z,98665.41
2023-02-07T18:58:34.457Z,98684.06
2023-02-07T19:01:31.686Z,98684.59
2023-02-07T19:04:28.811Z,98681.31
2023-02-07T19:07:25.730Z,98680.50
2023-02-07T19:10:23.442Z,98685.25
2023-02-07T19:13:20.300Z,98683.13
2023-02-07T19:16:22.135Z,98686.25
2023-02-07T19:19:19.007Z,98678.84
2023-02-07T19:22:21.568Z,98674.25
2023-02-07T19:25:23.778Z,98673.78
2023-02-07T19:28:20.636Z,98672.47
2023-02-07T19:31:18.288Z,98670.66
2023-02-07T19:34:15.407Z,98673.59
2023-02-07T19:37:12.263Z,98672.94
2023-02-07T19:40:10.418Z,98660.31
2023-02-07T19:43:07.361Z,98660.03
2023-02-07T19:46:04.370Z,98668.03
2023-02-07T19:49:01.290Z,98658.56
2023-02-07T19:51:58.094Z,98666.25
2023-02-07T19:54:55.936Z,98665.28
2023-02-07T19:57:54.531Z,98669.47
2023-02-07T20:00:51.352Z,98666.56
2023-02-07T20:03:52.578Z,98673.44
2023-02-07T20:06:49.433Z,98662.66
2023-02-07T20:09:46.591Z,98667.22
2023-02-07T20:12:43.405Z,98664.44
2023-02-07T20:15:41.658Z,98667.22
2023-02-07T20:18:38.769Z,98666.53
2023-02-07T20:21:37.053Z,98672.41
2023-02-07T20:24:33.909Z,98683.50
2023-02-07T20:27:30.714Z,98674.19
2023-02-07T20:30:27.896Z,98669.34
2023-02-07T20:33:24.897Z,98665.34
2023-02-07T20:36:22.141Z,98673.34
2023-02-07T20:39:21.798Z,98670.41
2023-02-07T20:42:19.522Z,98666.00
2023-02-07T20:45:16.646Z,98674.66
2023-02-07T20:48:15.101Z,98672.41
2023-02-07T20:51:11.996Z,98664.22
2023-02-07T20:54:11.256Z,98672.53
2023-02-07T20:57:08.061Z,98679.25
2023-02-07T21:00:07.494Z,98678.66
2023-02-07T21:03:04.365Z,98682.47
2023-02-07T21:06:01.176Z,98686.34
2023-02-07T21:09:00.700Z,98684.44
2023-02-07T21:11:58.520Z,98681.38
2023-02-07T21:14:55.762Z,98686.25
2023-02-07T21:17:52.576Z,98690.28
2023-02-07T21:20:49.779Z,98688.81
2023-02-07T21:23:46.596Z,98691.31
2023-02-07T21:26:43.843Z,98687.34
2023-02-07T21:29:40.804Z,98672.88
2023-02-07T21:32:37.592Z,98683.09
2023-02-07T21:35:34.477Z,98678.34
2023-02-07T21:38:31.348Z,98672.53
2023-02-07T21:41:29.237Z,98665.63
2023-02-07T21:44:26.155Z,98671.28
2023-02-07T21:47:22.956Z,98663.25
2023-02-07T21:50:19.813Z,98669.25
2023-02-07T21:53:17.277Z,98663.25
2023-02-07T21:56:20.306Z,98662.00
2023-02-07T21:59:19.495Z,98672.44
2023-02-07T22:02:16.349Z,98672.94
2023-02-07T22:05:13.186Z,98665.41
2023-02-07T22:08:11.282Z,98653.88
2023-02-07T22:11:11.104Z,98644.00
2023-02-07T22:14:08.193Z,98653.25
2023-02-07T22:17:05.000Z,98655.06
2023-02-07T22:20:01.876Z,98652.28
2023-02-07T22:22:58.678Z,98656.69
2023-02-07T22:25:55.486Z,98666.44
2023-02-07T22:28:53.398Z,98657.16
2023-02-07T22:31:50.327Z,98671.78
2023-02-07T22:34:47.259Z,98665.19
2023-02-07T22:37:44.651Z,98653.78
2023-02-07T22:40:42.865Z,98655.72
2023-02-07T22:43:40.781Z,98654.25
2023-02-07T22:46:37.921Z,98642.09
2023-02-07T22:49:36.215Z,98642.59
2023-02-07T22:52:33.977Z,98639.53
2023-02-07T22:55:33.206Z,98644.34
2023-02-07T22:58:30.113Z,98640.00
2023-02-07T23:01:30.871Z,98633.03
2023-02-07T23:04:27.724Z,98625.81
2023-02-07T23:07:26.135Z,98631.66
2023-02-07T23:10:26.338Z,98621.34
2023-02-07T23:13:23.449Z,98626.31
2023-02-07T23:16:24.725Z,98622.88
2023-02-07T23:19:21.520Z,98616.75
2023-02-07T23:22:18.414Z,98626.00
2023-02-07T23:25:16.102Z,98623.78
2023-02-07T23:28:14.292Z,98625.75
2023-02-07T23:31:15.109Z,98624.09
2023-02-07T23:34:12.131Z,98620.44
2023-02-07T23:37:08.945Z,98622.84
2023-02-07T23:40:06.331Z,98622.91
2023-02-07T23:43:03.141Z,98623.19
2023-02-07T23:46:00.014Z,98626.81
2023-02-07T23:48:56.834Z,98630.75
2023-02-07T23:51:53.665Z,98622.41
2023-02-07T23:54:50.504Z,98624.03
2023-02-07T23:57:47.339Z,98626.94
